Time;durP1;ratioP1;P1;durP2;ratioP2;P2;SDS_P1;SDS_P2;PMS_P1;PMS_P2;Temp;Humidity;BMP_temperature;BMP_pressure;BME280_temperature;BME280_humidity;BME280_pressure;Samples;Min_cycle;Max_cycle;Signal;HPM_P1;HPM_P2
2023/05/21 00:03:15;;;;;;;;;;;;;;;13.61;81.24;101828.03;4921500;29;20048;-93
2023/05/21 00:06:05;;;;;;;14.57;8.27;;;;;;;13.35;85.21;101792.94;4944083;29;19985;-95
2023/05/21 00:10:11;;;;;;;29.45;20.73;;;;;;;13.55;83.48;101829.00;4926890;29;20138;-93
2023/05/21 00:13:00;;;;;;;47.88;34.00;;;;;;;13.51;83.77;101826.50;4904895;29;20123;-94
2023/05/21 00:16:01;;;;;;;;;;;;;;;;;;;;;
2023/05/21 00:19:09;;;;;;;38.22;25.08;;;;;;;13.32;82.89;101797.34;4943753;29;20042;-94
2023/05/21 00:25:33;;;;;;;;;;;;;;;;;;;;;
2023/05/21 00:28:23;;;;;;;15.20;10.35;;;;;;;13.32;85.36;101811.22;4924454;29;20646;-94
2023/05/21 00:31:12;;;;;;;10.88;7.57;;;;;;;13.30;85.35;101802.59;4933075;29;20185;-94
2023/05/21 00:38:22;;;;;;;7.95;5.97;;;;;;;13.10;85.30;101783.00;4865945;29;20041;-94
2023/05/21 00:41:43;;;;;;;11.15;6.20;;;;;;;13.13;86.38;101781.22;4830954;29;20070;-94
2023/05/21 00:44:32;;;;;;;8.85;6.45;;;;;;;13.20;86.30;101801.06;4823727;29;20208;-94
2023/05/21 00:47:54;;;;;;;;;;;;;;;;;;;;;
2023/05/21 00:51:01;;;;;;;9.88;6.20;;;;;;;12.95;86.10;101771.13;4843910;29;20519;-94
2023/05/21 00:54:14;;;;;;;8.43;6.60;;;;;;;13.09;87.55;101800.38;4842348;29;20044;-94
2023/05/21 00:57:09;;;;;;;9.02;6.22;;;;;;;13.07;87.75;101795.19;4844923;29;20049;-94
2023/05/21 01:00:16;;;;;;;9.98;6.20;;;;;;;13.07;87.95;101794.34;4841817;29;20050;-95
2023/05/21 01:03:04;;;;;;;10.88;6.30;;;;;;;12.91;88.73;101769.47;4842617;29;20050;-94
2023/05/21 01:10:04;;;;;;;;;;;;;;;;;;;;;
2023/05/21 01:13:19;;;;;;;10.50;6.18;;;;;;;13.02;88.27;101784.00;4923405;29;20039;-93
2023/05/21 01:16:25;;;;;;;8.70;6.33;;;;;;;13.04;88.90;101789.16;4920997;29;20047;-94
2023/05/21 01:22:56;;;;;;;9.02;5.82;;;;;;;12.90;89.86;101775.53;4904687;29;20032;-94
2023/05/21 01:26:27;;;;;;;10.30;6.70;;;;;;;12.90;88.47;101767.75;4914022;29;20801;-94
2023/05/21 01:32:36;;;;;;;9.52;6.45;;;;;;;12.76;89.60;101754.16;4852555;29;20045;-93
2023/05/21 01:35:54;;;;;;;9.20;6.47;;;;;;;12.92;89.48;101782.44;4826459;29;20913;-93
2023/05/21 01:39:14;;;;;;;;;;;;;;;;;;;;;
2023/05/21 01:42:26;;;;;;;8.90;6.30;;;;;;;12.69;90.22;101744.75;4832991;29;20049;-94
2023/05/21 01:49:27;;;;;;;;;;;;;;;;;;;;;
2023/05/21 01:52:24;;;;;;;9.27;6.30;;;;;;;12.95;90.77;101773.75;4882549;29;20031;-94
2023/05/21 02:02:15;;;;;;;7.63;6.18;;;;;;;12.95;91.26;101764.19;4883782;29;20849;-94
2023/05/21 02:15:12;;;;;;;8.48;6.20;;;;;;;13.13;89.76;101764.75;4926175;29;20048;-94
2023/05/21 02:18:27;;;;;;;8.90;6.10;;;;;;;12.97;90.24;101731.16;4943039;28;20039;-94
2023/05/21 02:21:37;;;;;;;8.52;6.45;;;;;;;13.02;90.13;101733.69;4885928;29;20190;-95
2023/05/21 02:42:44;;;;;;;7.95;6.05;;;;;;;13.21;91.18;101748.09;4822775;23;20059;-93
2023/05/21 02:51:15;;;;;;;9.77;6.65;;;;;;;13.28;91.25;101754.03;4665990;23;20062;-83
2023/05/21 02:57:10;;;;;;;8.35;6.65;;;;;;;13.39;92.19;101758.13;3149849;23;20063;-94
2023/05/21 03:00:28;;;;;;;11.23;6.97;;;;;;;13.25;90.08;101717.63;4914895;28;20035;-94
2023/05/21 03:03:26;;;;;;;;;;;;;;;;;;;;;
2023/05/21 03:06:57;;;;;;;9.65;6.68;;;;;;;13.39;90.72;101736.44;4950551;28;20034;-94
2023/05/21 03:09:55;;;;;;;;;;;;;;;;;;;;;
2023/05/21 03:13:03;;;;;;;10.02;6.50;;;;;;;13.48;90.03;101738.00;4951566;28;20054;-94
2023/05/21 03:15:47;;;;;;;;;;;;;;;;;;;;;
2023/05/21 03:18:36;;;;;;;9.70;6.80;;;;;;;13.49;90.59;101737.97;4951908;28;20530;-95
2023/05/21 03:21:47;;;;;;;9.02;6.57;;;;;;;13.33;91.54;101708.78;4955734;28;20039;-94
2023/05/21 03:24:34;;;;;;;;;;;;;;;;;;;;;
2023/05/21 03:30:49;;;;;;;10.15;6.50;;;;;;;13.49;90.93;101721.47;4951269;28;20086;-93
2023/05/21 03:34:18;;;;;;;9.55;6.60;;;;;;;13.32;90.71;101694.03;4932697;28;20062;-94
2023/05/21 03:40:31;;;;;;;9.13;6.30;;;;;;;13.46;91.83;101722.38;4934888;28;20062;-95
2023/05/21 03:43:31;;;;;;;;;;;;;;;;;;;;;
2023/05/21 03:46:36;;;;;;;9.65;6.68;;;;;;;13.26;91.10;101696.78;4931243;29;20027;-95
2023/05/21 03:53:12;;;;;;;8.82;6.80;;;;;;;13.41;92.25;101732.91;4932273;28;20062;-95
2023/05/21 03:59:59;;;;;;;9.18;6.95;;;;;;;13.39;92.52;101734.69;4904500;28;20035;-95
2023/05/21 04:10:03;;;;;;;;;;;;;;;;;;;;;
2023/05/21 04:13:20;;;;;;;10.70;6.72;;;;;;;13.37;92.88;101730.41;4917437;28;20039;-95
2023/05/21 04:16:40;;;;;;;10.10;6.85;;;;;;;13.38;93.15;101732.09;4918933;29;20075;-96
2023/05/21 04:23:42;;;;;;;9.05;6.78;;;;;;;13.38;92.80;101732.09;4751238;29;20043;-96
2023/05/21 04:27:12;;;;;;;;;;;;;;;;;;;;;
2023/05/21 04:30:32;;;;;;;;;;;;;;;;;;;;;
2023/05/21 04:33:41;;;;;;;9.80;6.53;;;;;;;13.30;92.93;101716.69;4798376;29;20043;-94
2023/05/21 04:41:55;;;;;;;10.85;7.82;;;;;;;13.33;93.51;101727.00;5211074;23;20829;-83
2023/05/21 04:44:21;;;;;;;11.02;7.22;;;;;;;13.42;93.78;101745.06;5013541;23;20075;-82
2023/05/21 04:46:51;;;;;;;9.48;7.25;;;;;;;13.35;93.85;101735.66;4785805;23;20066;31
2023/05/21 04:49:16;;;;;;;10.38;7.68;;;;;;;13.39;94.28;101731.22;3313140;23;20059;-94
2023/05/21 04:54:22;;;;;;;10.05;7.03;;;;;;;13.39;94.70;101721.66;5020941;23;20253;-93
2023/05/21 04:56:47;;;;;;;11.77;7.90;;;;;;;13.47;94.37;101733.66;4984312;23;20059;-81
2023/05/21 04:59:14;;;;;;;12.77;7.97;;;;;;;13.45;94.19;101726.75;5019806;23;20636;-93
2023/05/21 05:01:41;;;;;;;12.15;7.53;;;;;;;13.53;94.79;101741.34;4696327;23;20059;-94
2023/05/21 05:04:07;;;;;;;12.30;8.32;;;;;;;13.54;94.15;101745.69;5012385;23;20106;-82
2023/05/21 05:06:32;;;;;;;11.43;7.43;;;;;;;13.58;95.21;101744.75;4971839;28;20121;-83
2023/05/21 05:08:58;;;;;;;12.15;8.00;;;;;;;13.51;93.93;101736.16;5052782;23;20062;-94
2023/05/21 05:14:04;;;;;;;12.55;8.63;;;;;;;13.54;94.90;101736.13;4707547;26;20047;-94
2023/05/21 05:21:09;;;;;;;14.23;8.50;;;;;;;13.67;93.46;101736.69;4931146;29;20071;-94
2023/05/21 05:24:17;;;;;;;12.00;8.48;;;;;;;13.62;93.26;101720.31;4900382;29;20039;-95
2023/05/21 05:37:04;;;;;;;13.68;8.77;;;;;;;13.85;94.63;101744.13;4936133;28;20524;-94
2023/05/21 05:43:47;;;;;;;14.05;8.77;;;;;;;13.98;95.74;101740.34;4922200;29;20154;-94
2023/05/21 05:47:07;;;;;;;;;;;;;;;;;;;;;
2023/05/21 05:50:01;;;;;;;12.15;8.20;;;;;;;14.07;96.42;101728.81;4929306;29;20434;-94
2023/05/21 05:53:30;;;;;;;;;;;;;;;;;;;;;
2023/05/21 05:56:30;;;;;;;14.60;8.82;;;;;;;14.26;91.82;101732.72;4929965;29;20613;-94
2023/05/21 06:03:04;;;;;;;13.82;9.30;;;;;;;14.49;93.11;101742.59;4875656;29;20413;-95
2023/05/21 06:05:59;;;;;;;12.45;9.05;;;;;;;14.63;93.00;101737.88;4889809;29;20040;-95
2023/05/21 06:12:43;;;;;;;13.05;8.57;;;;;;;14.78;91.86;101714.00;4876652;29;20081;-94
2023/05/21 06:15:42;;;;;;;13.18;8.52;;;;;;;15.08;89.88;101742.78;4929916;29;20050;-94
2023/05/21 06:22:13;;;;;;;11.13;8.40;;;;;;;15.52;89.10;101731.88;4945534;28;20505;-95
2023/05/21 06:25:23;;;;;;;;;;;;;;;;;;;;;
2023/05/21 06:28:41;;;;;;;;;;;;;;;;;;;;;
2023/05/21 06:31:55;;;;;;;13.95;9.27;;;;;;;15.64;88.38;101708.00;4950242;28;20053;-95
2023/05/21 06:38:28;;;;;;;13.30;8.70;;;;;;;16.06;85.63;101741.56;4951396;28;20051;-96
2023/05/21 06:48:00;;;;;;;;;;;;;;;;;;;;;
2023/05/21 06:50:35;;;;;;;13.88;9.23;;;;;;;16.74;85.68;101734.06;4942882;28;20539;-92
2023/05/21 06:56:55;;;;;;;11.65;8.63;;;;;;;16.96;83.41;101707.97;4945643;28;20035;-94
2023/05/21 06:59:57;;;;;;;13.85;9.57;;;;;;;17.24;79.80;101721.75;4937894;28;20043;-93
2023/05/21 07:03:06;;;;;;;13.43;9.32;;;;;;;17.32;79.80;101704.00;4944716;28;20043;-95
2023/05/21 07:09:01;;;;;;;12.82;9.50;;;;;;;18.12;74.08;101701.72;4934813;28;20232;-92
2023/05/21 07:14:51;;;;;;;12.68;8.93;;;;;;;18.35;76.58;101716.50;4944418;28;20043;-93
2023/05/21 07:17:29;;;;;;;14.48;9.93;;;;;;;18.24;76.52;101701.19;4945531;28;20038;-92
2023/05/21 07:27:17;;;;;;;14.00;9.23;;;;;;;18.59;77.68;101691.84;5012366;23;20062;-83
2023/05/21 07:29:42;;;;;;;14.82;9.52;;;;;;;18.79;71.89;101699.72;4987670;28;20054;-83
2023/05/21 07:32:07;;;;;;;14.02;10.05;;;;;;;19.13;73.76;101706.94;5106949;23;20109;-82
2023/05/21 07:34:33;;;;;;;12.82;9.65;;;;;;;19.38;70.36;101703.19;4966912;28;20086;-82
2023/05/21 07:36:58;;;;;;;13.63;9.93;;;;;;;19.36;73.01;101698.00;5108361;23;20075;-82
2023/05/21 07:41:56;;;;;;;14.55;9.90;;;;;;;20.05;69.24;101706.13;4987145;23;20062;-82
2023/05/21 07:46:52;;;;;;;13.35;9.85;;;;;;;20.90;65.37;101701.72;5061988;23;20141;-83
2023/05/21 07:52:13;;;;;;;12.75;9.45;;;;;;;21.83;63.61;101701.94;4979448;23;20509;-92
2023/05/21 07:55:37;;;;;;;;;;;;;;;;;;;;;
2023/05/21 07:58:22;;;;;;;12.10;9.25;;;;;;;22.29;62.63;101671.94;4939237;29;20508;-94
2023/05/21 08:01:09;;;;;;;16.70;10.20;;;;;;;22.43;59.39;101703.66;4927241;29;20043;-92
2023/05/21 08:04:05;;;;;;;13.20;9.80;;;;;;;22.28;63.77;101691.34;4942739;29;20653;-94
2023/05/21 08:10:24;;;;;;;13.07;9.38;;;;;;;22.34;61.64;101700.72;4925764;29;20791;-96
2023/05/21 08:13:32;;;;;;;11.40;9.48;;;;;;;22.42;61.63;101688.75;4925343;29;20114;-94
2023/05/21 08:16:25;;;;;;;;;;;;;;;;;;;;;
2023/05/21 08:26:15;;;;;;;12.77;9.88;;;;;;;22.03;62.03;101685.81;4898961;29;20043;-94
2023/05/21 08:32:25;;;;;;;;;;;;;;;;;;;;;
2023/05/21 08:35:26;;;;;;;13.10;10.05;;;;;;;22.29;62.96;101684.28;4943720;29;20031;-94
2023/05/21 08:38:08;;;;;;;12.57;10.55;;;;;;;22.26;61.43;101672.09;4922940;29;20043;-92
2023/05/21 08:40:46;;;;;;;14.18;10.52;;;;;;;22.09;59.48;101663.47;4926259;29;20074;-94
2023/05/21 08:43:26;;;;;;;14.00;10.00;;;;;;;22.20;60.42;101675.09;4923864;29;20058;-94
2023/05/21 08:49:43;;;;;;;13.43;9.68;;;;;;;22.27;64.83;101662.38;4941869;29;20051;-93
2023/05/21 08:52:32;;;;;;;16.48;10.52;;;;;;;22.33;62.35;101668.16;4926422;29;20038;-93
2023/05/21 08:55:52;;;;;;;14.48;9.90;;;;;;;22.36;60.89;101677.69;4923224;29;20058;-94
2023/05/21 08:58:47;;;;;;;15.23;10.20;;;;;;;22.11;63.24;101670.34;4928346;29;20063;-93
2023/05/21 09:01:26;;;;;;;13.93;10.73;;;;;;;22.05;62.31;101665.44;4924758;29;20058;-92
2023/05/21 09:04:29;;;;;;;13.55;10.50;;;;;;;22.12;62.37;101652.72;4924965;29;20040;-94
2023/05/21 09:07:16;;;;;;;15.38;10.75;;;;;;;22.49;61.55;101673.38;4922412;29;20070;-93
2023/05/21 09:10:08;;;;;;;14.15;10.93;;;;;;;22.42;61.06;101664.13;4924179;29;20135;-93
2023/05/21 09:12:52;;;;;;;15.80;11.15;;;;;;;22.30;62.29;101651.66;4923012;29;20046;-93
2023/05/21 09:15:58;;;;;;;13.82;11.05;;;;;;;22.22;61.81;101660.03;4922695;29;20071;-92
2023/05/21 09:19:33;;;;;;;15.50;11.80;;;;;;;22.15;61.79;101658.69;4921027;29;20061;-94
2023/05/21 09:22:30;;;;;;;16.23;12.20;;;;;;;22.24;60.63;101674.00;4924904;29;20374;-92
2023/05/21 09:25:35;;;;;;;17.42;11.57;;;;;;;22.24;61.08;101663.44;4921419;29;20059;-90
2023/05/21 09:28:19;;;;;;;15.95;11.15;;;;;;;22.30;60.77;101659.56;4911529;29;20035;-90
2023/05/21 09:31:13;;;;;;;16.52;12.43;;;;;;;22.30;61.16;101651.66;4926278;29;20398;-90
2023/05/21 09:33:55;;;;;;;17.38;12.65;;;;;;;22.16;61.66;101655.09;4926227;28;20158;-92
2023/05/21 09:37:12;;;;;;;17.75;11.77;;;;;;;22.32;64.18;101660.31;4936007;29;20126;-92
2023/05/21 09:40:03;;;;;;;16.58;12.52;;;;;;;22.23;61.57;101652.97;4914933;29;20162;-93
2023/05/21 09:43:00;;;;;;;16.95;12.02;;;;;;;22.10;62.81;101649.34;4901537;29;20091;-93
2023/05/21 09:45:42;;;;;;;;;;;;;;;;;;;;;
2023/05/21 09:49:00;;;;;;;17.45;12.18;;;;;;;22.36;61.35;101635.44;4914655;29;20043;-92
2023/05/21 09:51:37;;;;;;;14.63;11.57;;;;;;;22.46;61.35;101636.56;4865672;29;20135;-91
2023/05/21 09:54:34;;;;;;;17.15;12.00;;;;;;;22.69;60.42;101659.81;4868755;29;20049;-91
2023/05/21 09:57:30;;;;;;;16.20;11.43;;;;;;;22.74;61.23;101662.19;4896080;29;20212;-91
2023/05/21 10:00:30;;;;;;;15.65;11.45;;;;;;;22.71;61.60;101618.28;4916041;29;20043;-91
2023/05/21 10:06:06;;;;;;;17.02;11.18;;;;;;;22.55;63.32;101635.16;4903233;29;20036;-89
2023/05/21 10:08:42;;;;;;;17.70;12.95;;;;;;;22.35;60.53;101628.44;4900223;29;20048;-92
2023/05/21 10:11:17;;;;;;;16.90;12.07;;;;;;;22.22;61.90;101622.19;4920731;29;20595;-91
2023/05/21 10:14:02;;;;;;;17.08;12.13;;;;;;;22.09;61.68;101634.44;4920211;29;20040;-94
2023/05/21 10:16:59;;;;;;;16.05;12.10;;;;;;;21.91;64.31;101639.81;4918229;29;20040;-93
2023/05/21 10:19:39;;;;;;;19.30;13.63;;;;;;;21.66;63.99;101629.81;4940277;29;20041;-92
2023/05/21 10:22:24;;;;;;;18.38;13.18;;;;;;;21.75;64.94;101617.91;4927572;29;20094;-91
2023/05/21 10:25:04;;;;;;;21.58;15.07;;;;;;;22.13;62.91;101634.16;4927748;28;20039;-90
2023/05/21 10:27:40;;;;;;;20.98;14.75;;;;;;;22.27;60.90;101612.19;4923648;29;20047;-91
2023/05/21 10:30:36;;;;;;;19.08;14.48;;;;;;;22.41;59.75;101622.78;4924555;29;20063;-90
2023/05/21 10:33:08;;;;;;;17.83;13.65;;;;;;;22.45;62.25;101630.41;4924493;28;20047;-91
2023/05/21 10:36:17;;;;;;;20.60;15.38;;;;;;;22.47;59.22;101627.69;4921078;29;20258;-92
2023/05/21 10:38:55;;;;;;;23.58;15.32;;;;;;;22.03;60.85;101599.53;4888654;29;20042;-91
2023/05/21 10:45:34;;;;;;;;;;;;;;;;;;;;;
2023/05/21 10:48:30;;;;;;;20.85;15.73;;;;;;;22.06;63.40;101611.69;4940063;29;20046;-92
2023/05/21 10:51:14;;;;;;;21.02;15.40;;;;;;;22.25;63.82;101606.16;4940167;29;20039;-91
2023/05/21 10:54:03;;;;;;;22.50;15.95;;;;;;;22.44;60.99;101606.75;4938790;29;20060;-92
2023/05/21 10:57:11;;;;;;;20.50;15.52;;;;;;;22.31;60.52;101572.28;4925370;29;20182;-92
2023/05/21 11:00:00;;;;;;;24.58;16.40;;;;;;;22.37;61.81;101582.50;4920861;29;20035;-92
2023/05/21 11:02:47;;;;;;;22.35;15.70;;;;;;;22.31;61.18;101587.31;4920944;29;20089;-92
2023/05/21 11:05:42;;;;;;;21.92;16.00;;;;;;;22.26;62.48;101587.56;4926657;29;20062;-91
2023/05/21 11:08:46;;;;;;;23.33;16.40;;;;;;;22.27;62.20;101562.84;4926175;29;20035;-91
2023/05/21 11:11:47;;;;;;;24.55;17.08;;;;;;;22.23;61.17;101565.78;4916780;29;20046;-92
2023/05/21 11:14:52;;;;;;;23.70;15.95;;;;;;;22.33;62.26;101574.84;4920185;29;20050;-92
2023/05/21 11:21:14;;;;;;;21.30;15.52;;;;;;;22.46;60.00;101581.91;4933272;29;20035;-93
2023/05/21 11:24:27;;;;;;;24.00;16.38;;;;;;;22.37;60.72;101552.59;4924442;29;20047;-93
2023/05/21 11:27:04;;;;;;;20.88;15.30;;;;;;;22.55;62.40;101571.72;4851703;29;20494;-92
2023/05/21 11:30:35;;;;;;;23.33;17.00;;;;;;;22.34;61.07;101547.47;4848091;29;20041;-92
2023/05/21 11:36:33;;;;;;;21.77;15.35;;;;;;;22.33;62.85;101545.78;4863855;29;20038;-92
2023/05/21 11:39:34;;;;;;;;;;;;;;;;;;;;;
2023/05/21 11:42:26;;;;;;;23.52;16.05;;;;;;;22.29;62.10;101560.13;4871640;29;20048;-92
2023/05/21 11:48:46;;;;;;;22.63;15.50;;;;;;;22.50;62.02;101556.16;4938422;29;20517;-92
2023/05/21 11:51:38;;;;;;;24.25;15.88;;;;;;;22.39;62.32;101555.97;4941928;29;20048;-92
2023/05/21 11:54:37;;;;;;;21.50;15.35;;;;;;;22.54;62.62;101559.47;4926198;29;20072;-92
2023/05/21 11:57:59;;;;;;;;;;;;;;;;;;;;;
2023/05/21 12:00:31;;;;;;;23.85;15.57;;;;;;;22.60;62.41;101545.84;4860659;29;20046;-92
2023/05/21 12:03:29;;;;;;;22.20;15.20;;;;;;;22.54;63.00;101528.59;4856276;29;20102;-93
2023/05/21 12:06:20;;;;;;;20.75;15.38;;;;;;;22.59;61.39;101518.56;4840228;29;20399;-92
2023/05/21 12:09:03;;;;;;;22.48;15.80;;;;;;;22.64;61.40;101532.38;4861024;29;20776;-93
2023/05/21 12:15:12;;;;;;;21.00;15.93;;;;;;;22.79;61.35;101534.06;4850548;29;20041;-91
2023/05/21 12:17:58;;;;;;;22.25;16.15;;;;;;;22.62;62.57;101515.75;4875252;29;20582;-91
2023/05/21 12:20:38;;;;;;;22.10;15.85;;;;;;;22.64;61.67;101540.31;4926715;29;20441;-92
2023/05/21 12:23:26;;;;;;;22.20;15.95;;;;;;;22.64;62.19;101523.59;4924634;29;20039;-91
2023/05/21 12:26:05;;;;;;;21.58;16.15;;;;;;;22.62;61.97;101520.19;4924581;29;20058;-91
2023/05/21 12:29:10;;;;;;;20.75;16.17;;;;;;;22.74;63.40;101522.09;4920427;29;21449;-92
2023/05/21 12:32:11;;;;;;;23.10;16.08;;;;;;;22.71;61.51;101512.53;4924619;29;20034;-91
2023/05/21 12:34:48;;;;;;;24.20;16.00;;;;;;;22.74;61.49;101524.72;4897217;28;20056;-92
2023/05/21 12:37:37;;;;;;;21.73;16.50;;;;;;;22.71;62.14;101512.53;4901788;29;20132;-92
2023/05/21 12:40:22;;;;;;;;;;;;;;;;;;;;;
2023/05/21 12:43:11;;;;;;;21.20;15.30;;;;;;;22.70;61.93;101502.91;4941343;29;20061;-93
2023/05/21 12:46:49;;;;;;;22.92;15.82;;;;;;;22.72;63.55;101485.13;4926730;29;20404;-92
2023/05/21 12:49:56;;;;;;;21.98;15.18;;;;;;;22.88;62.93;101507.97;4854641;29;20056;-91
2023/05/21 12:52:53;;;;;;;22.92;15.57;;;;;;;22.67;62.12;101489.88;4864010;29;20427;-92
2023/05/21 12:55:35;;;;;;;;;;;;;;;;;;;;;
2023/05/21 12:58:20;;;;;;;19.60;15.15;;;;;;;22.52;64.08;101496.13;4851996;29;20048;-92
2023/05/21 13:00:58;;;;;;;;;;;;;;;22.78;63.17;101518.31;4849309;29;20503;-92
2023/05/21 13:03:36;;;;;;;23.00;14.95;;;;;;;22.57;63.91;101503.78;4849809;29;20251;-92
2023/05/21 13:06:20;;;;;;;21.58;15.43;;;;;;;22.80;62.96;101527.81;4852410;29;20499;-92
2023/05/21 13:15:22;;;;;;;21.10;15.18;;;;;;;23.20;62.50;101538.50;4922940;29;20131;-92
2023/05/21 13:21:19;;;;;;;20.05;14.75;;;;;;;23.28;62.74;101512.38;4923661;29;20054;-92
2023/05/21 13:24:18;;;;;;;;;;;;;;;;;;;;;
2023/05/21 13:27:17;;;;;;;21.27;15.10;;;;;;;23.43;60.39;101502.56;4923995;29;20042;-91
2023/05/21 13:30:10;;;;;;;19.95;14.57;;;;;;;23.43;61.24;101502.56;4918242;29;20051;-91
2023/05/21 13:33:02;;;;;;;17.95;14.13;;;;;;;23.49;60.75;101524.19;4921710;29;20047;-92
2023/05/21 13:35:39;;;;;;;18.45;13.13;;;;;;;23.48;60.72;101490.75;4922070;29;20047;-92
2023/05/21 13:38:28;;;;;;;20.67;15.05;;;;;;;23.68;60.38;101512.41;4921588;29;20050;-92
2023/05/21 13:44:35;;;;;;;19.38;14.77;;;;;;;23.54;58.64;101518.63;4922956;29;20527;-91
2023/05/21 13:47:59;;;;;;;20.25;14.07;;;;;;;23.27;61.05;101497.44;4938041;29;20050;-92
2023/05/21 13:50:53;;;;;;;19.05;14.80;;;;;;;23.36;60.19;101512.72;4903592;29;20084;-92
2023/05/21 13:53:59;;;;;;;20.95;15.07;;;;;;;23.16;60.97;101506.09;4922919;29;20052;-92
2023/05/21 13:56:34;;;;;;;19.23;14.23;;;;;;;23.26;62.17;101519.56;4903878;29;20044;-92
2023/05/21 13:59:15;;;;;;;21.92;14.80;;;;;;;23.13;62.88;101516.84;4889422;29;20466;-92
2023/05/21 14:01:51;;;;;;;21.00;14.85;;;;;;;23.07;60.78;101495.25;4898497;29;20406;-92
2023/05/21 14:04:28;;;;;;;19.88;14.63;;;;;;;23.06;62.50;101498.88;4891450;29;20097;-92
2023/05/21 14:07:11;;;;;;;20.23;14.70;;;;;;;23.12;64.02;101495.81;4886699;29;20112;-93
2023/05/21 14:13:12;;;;;;;18.02;14.13;;;;;;;23.46;62.61;101503.22;4887046;29;21188;-92
2023/05/21 14:16:13;;;;;;;18.33;14.05;;;;;;;23.56;62.89;101472.56;4889452;29;20060;-93
2023/05/21 14:18:54;;;;;;;18.63;13.73;;;;;;;23.71;60.35;101469.81;4874908;29;20052;-93
2023/05/21 14:22:12;;;;;;;19.13;14.20;;;;;;;23.95;60.13;101491.97;4901833;29;20069;-93
2023/05/21 14:24:28;;;;;;;20.77;14.77;;;;;;;24.01;59.35;101488.91;4883364;29;20123;-93
2023/05/21 14:27:11;;;;;;;;;;;;;;;;;;;;;
2023/05/21 14:30:04;;;;;;;19.42;14.52;;;;;;;23.72;59.78;101488.25;4888588;29;20393;-91
2023/05/21 14:32:46;;;;;;;20.38;15.00;;;;;;;23.50;60.29;101457.09;4886172;29;20036;-93
2023/05/21 14:35:25;;;;;;;19.25;14.90;;;;;;;23.54;60.26;101474.44;4886556;29;20044;-93
2023/05/21 14:41:56;;;;;;;23.55;14.43;;;;;;;23.81;60.83;101477.03;4887749;29;20079;-92
2023/05/21 14:44:32;;;;;;;18.65;14.05;;;;;;;23.85;59.97;101469.72;4888253;29;20049;-92
2023/05/21 14:47:05;;;;;;;20.67;16.00;;;;;;;23.92;59.62;101474.47;4884576;29;20448;-92
2023/05/21 14:50:12;;;;;;;17.92;14.70;;;;;;;23.92;60.21;101463.88;4899809;29;20091;-93
2023/05/21 14:56:20;;;;;;;17.85;14.00;;;;;;;23.93;60.56;101464.72;4895978;29;20056;-93
2023/05/21 15:02:24;;;;;;;17.48;14.52;;;;;;;24.04;60.05;101472.78;4916029;29;20035;-92
2023/05/21 15:05:07;;;;;;;19.98;14.93;;;;;;;23.90;58.33;101441.94;4916049;29;20123;-91
2023/05/21 15:08:02;;;;;;;;;;;;;;;;;;;;;
2023/05/21 15:14:04;;;;;;;19.23;14.50;;;;;;;23.50;59.39;101437.72;4921077;29;20190;-93
2023/05/21 15:20:13;;;;;;;21.95;14.77;;;;;;;23.46;60.17;101438.84;4920256;29;20066;-92
2023/05/21 15:22:48;;;;;;;20.25;14.35;;;;;;;23.52;59.45;101436.66;4919433;29;20047;-94
2023/05/21 15:25:21;;;;;;;20.15;14.55;;;;;;;23.41;60.63;101415.31;4917334;29;20055;-93
2023/05/21 15:28:10;;;;;;;20.45;15.15;;;;;;;23.59;60.66;101429.16;4923457;28;20111;-95
2023/05/21 15:31:18;;;;;;;17.65;13.90;;;;;;;23.53;60.93;101424.28;4920413;29;20059;-93
2023/05/21 15:37:03;;;;;;;20.10;14.68;;;;;;;23.79;60.63;101438.38;4920109;29;20036;-94
2023/05/21 15:40:07;;;;;;;19.83;14.23;;;;;;;23.75;59.50;101437.72;4919631;29;20047;-94
2023/05/21 15:43:00;;;;;;;19.30;13.73;;;;;;;23.61;60.41;101422.78;4922219;29;20082;-95
2023/05/21 15:45:59;;;;;;;18.60;14.43;;;;;;;23.57;60.47;101418.66;4924685;28;20579;-94
2023/05/21 15:49:11;;;;;;;18.50;14.20;;;;;;;23.55;60.77;101433.78;4931917;29;20036;-93
2023/05/21 15:52:18;;;;;;;17.60;13.95;;;;;;;23.47;60.56;101422.88;4926056;29;20066;-96
2023/05/21 15:55:13;;;;;;;18.92;14.50;;;;;;;23.46;61.11;101426.47;4921427;29;20306;-96
2023/05/21 15:58:19;;;;;;;20.30;14.05;;;;;;;23.55;60.90;101428.50;4925726;29;20055;-95
2023/05/21 16:01:24;;;;;;;21.33;15.18;;;;;;;23.59;61.62;101424.72;4915720;29;20046;-95
2023/05/21 16:04:16;;;;;;;19.20;14.63;;;;;;;23.77;60.29;101443.75;4921046;29;20058;-95
2023/05/21 16:07:17;;;;;;;18.00;14.05;;;;;;;23.68;60.62;101432.97;4923384;29;20044;-95
2023/05/21 16:09:53;;;;;;;19.30;14.63;;;;;;;23.67;60.12;101421.53;4928237;29;20074;-94
2023/05/21 16:15:50;;;;;;;20.70;15.43;;;;;;;23.79;61.64;101456.91;4926321;29;20040;-94
2023/05/21 16:21:33;;;;;;;24.35;16.58;;;;;;;23.67;61.85;101437.41;4921835;29;20436;-93
2023/05/21 16:24:09;;;;;;;36.90;22.75;;;;;;;23.76;59.45;101438.56;4926910;28;20561;-93
2023/05/21 16:27:08;;;;;;;26.48;16.55;;;;;;;23.73;60.00;101436.16;4918988;29;20054;-94
2023/05/21 16:33:12;;;;;;;21.35;14.68;;;;;;;23.51;61.32;101431.47;4923975;29;20134;-94
2023/05/21 16:35:50;;;;;;;21.23;15.45;;;;;;;23.35;60.92;101426.34;4926607;29;20050;-96
2023/05/21 16:39:29;;;;;;;20.95;14.77;;;;;;;23.30;61.00;101427.59;4926684;29;20039;-96
2023/05/21 16:42:02;;;;;;;;;;;;;;;;;;;;;
2023/05/21 16:44:49;;;;;;;20.63;14.50;;;;;;;23.40;62.92;101444.56;4924967;29;20040;-93
2023/05/21 16:47:43;;;;;;;20.20;14.68;;;;;;;23.38;63.78;101451.75;4922734;29;20054;-94
2023/05/21 16:50:30;;;;;;;21.33;15.00;;;;;;;23.34;62.10;101453.75;4921745;29;20501;-94
2023/05/21 16:53:30;;;;;;;19.27;14.55;;;;;;;23.10;63.46;101431.59;4929324;28;20464;-95
2023/05/21 16:56:26;;;;;;;19.08;14.55;;;;;;;23.18;62.41;101453.09;4917855;29;20047;-95
2023/05/21 16:59:26;;;;;;;18.65;14.05;;;;;;;22.91;62.96;101434.63;4929399;29;20422;-96
2023/05/21 17:02:13;;;;;;;18.75;14.05;;;;;;;22.97;63.50;101457.16;4921399;29;20046;-94
2023/05/21 17:05:27;;;;;;;;;;;;;;;;;;;;;
2023/05/21 17:08:07;;;;;;;19.92;14.43;;;;;;;22.80;64.09;101443.22;4925420;29;20052;-96
2023/05/21 17:14:01;;;;;;;20.55;14.63;;;;;;;22.79;64.28;101428.31;4925888;29;20054;-95
2023/05/21 17:16:54;;;;;;;20.98;15.02;;;;;;;22.99;64.37;101450.81;4923765;29;20782;-96
2023/05/21 17:22:42;;;;;;;22.13;15.45;;;;;;;22.78;63.07;101424.00;4920125;29;20046;-95
2023/05/21 17:25:37;;;;;;;18.35;14.73;;;;;;;22.80;63.92;101432.66;4930332;28;20048;-95
2023/05/21 17:28:12;;;;;;;22.52;14.95;;;;;;;22.80;63.34;101435.28;4920546;29;20036;-95
2023/05/21 17:31:11;;;;;;;21.38;15.30;;;;;;;22.77;61.89;101432.88;4930865;29;20054;-94
2023/05/21 17:37:17;;;;;;;21.23;15.30;;;;;;;22.82;63.14;101446.63;4922639;29;20048;-96
2023/05/21 17:40:20;;;;;;;20.83;14.52;;;;;;;22.69;63.77;101431.63;4921353;29;20440;-95
2023/05/21 17:43:07;;;;;;;22.60;15.07;;;;;;;22.65;63.48;101444.22;4927869;29;20063;-95
2023/05/21 17:45:59;;;;;;;19.77;14.32;;;;;;;22.50;63.90;101436.41;4921664;29;20043;-93
2023/05/21 17:48:46;;;;;;;17.98;13.65;;;;;;;22.39;64.77;101434.44;4939624;29;20040;-95
2023/05/21 17:54:40;;;;;;;21.23;15.05;;;;;;;22.27;64.27;101440.50;4932185;29;20420;-95
2023/05/21 18:01:02;;;;;;;20.48;14.60;;;;;;;22.27;65.73;101436.06;4933467;29;20035;-96
2023/05/21 18:07:14;;;;;;;21.65;15.65;;;;;;;22.23;66.29;101449.56;4952159;29;20047;-95
2023/05/21 18:10:14;;;;;;;21.08;15.00;;;;;;;22.30;65.93;101461.44;4933261;29;20047;-95
2023/05/21 18:12:55;;;;;;;21.80;15.27;;;;;;;22.25;65.73;101459.06;4922279;29;20614;-94
2023/05/21 18:15:59;;;;;;;;;;;;;;;;;;;;;
2023/05/21 18:18:51;;;;;;;20.23;15.05;;;;;;;22.16;66.23;101464.97;4938883;29;20035;-95
2023/05/21 18:25:00;;;;;;;19.95;13.95;;;;;;;22.04;66.72;101460.44;4926076;29;20047;-95
2023/05/21 18:28:00;;;;;;;23.55;16.25;;;;;;;21.99;66.27;101451.94;4924002;29;20036;-95
2023/05/21 18:30:59;;;;;;;19.33;14.75;;;;;;;22.03;67.44;101469.31;4921700;29;20040;-95
2023/05/21 18:34:00;;;;;;;21.17;15.45;;;;;;;22.01;66.68;101469.38;4925325;29;21313;-95
2023/05/21 18:37:03;;;;;;;;;;;;;;;;;;;;;
2023/05/21 18:39:54;;;;;;;20.67;14.65;;;;;;;21.79;67.35;101447.00;4919949;29;20043;-95